createdAt,value
2023-01-31T00:01:39.983Z,4.63
2023-01-31T00:04:14.095Z,3.93
2023-01-31T00:06:44.709Z,4.20
2023-01-31T00:09:13.079Z,4.07
2023-01-31T00:11:40.635Z,5.10
2023-01-31T00:14:10.711Z,5.10
2023-01-31T00:16:38.391Z,4.83
2023-01-31T00:19:05.963Z,4.87
2023-01-31T00:21:33.390Z,5.00
2023-01-31T00:24:00.694Z,4.43
2023-01-31T00:26:30.862Z,4.72
2023-01-31T00:28:59.810Z,4.53
2023-01-31T00:31:29.184Z,4.60
2023-01-31T00:33:57.359Z,5.13
2023-01-31T00:36:29.787Z,4.70
2023-01-31T00:38:58.993Z,4.77
2023-01-31T00:41:28.059Z,4.63
2023-01-31T00:43:55.377Z,4.60
2023-01-31T00:46:22.515Z,5.00
2023-01-31T00:48:50.320Z,5.00
2023-01-31T00:51:18.534Z,5.20
2023-01-31T00:53:46.398Z,5.05
2023-01-31T00:56:17.083Z,5.20
2023-01-31T00:58:44.236Z,5.72
2023-01-31T01:01:15.916Z,4.93
2023-01-31T01:03:45.499Z,5.25
2023-01-31T01:06:14.487Z,5.00
2023-01-31T01:08:43.781Z,5.70
2023-01-31T01:11:21.365Z,6.03
2023-01-31T01:13:48.821Z,5.15
2023-01-31T01:16:20.550Z,5.57
2023-01-31T01:18:49.378Z,5.13
2023-01-31T01:21:27.571Z,4.78
2023-01-31T01:23:57.266Z,4.63
2023-01-31T01:26:26.907Z,5.05
2023-01-31T01:28:55.640Z,5.43
2023-01-31T01:31:30.478Z,5.30
2023-01-31T01:34:07.062Z,5.40
2023-01-31T01:36:36.395Z,5.20
2023-01-31T01:39:05.891Z,5.07
2023-01-31T01:41:36.351Z,4.87
2023-01-31T01:44:25.065Z,6.67
2023-01-31T01:46:52.683Z,5.55
2023-01-31T01:49:24.306Z,5.50
2023-01-31T01:51:55.221Z,6.20
2023-01-31T01:54:28.642Z,5.20
2023-01-31T01:57:02.160Z,5.50
2023-01-31T01:59:34.468Z,5.73
2023-01-31T02:02:02.265Z,6.03
2023-01-31T02:04:34.393Z,5.40
2023-01-31T02:07:02.919Z,5.80
2023-01-31T02:09:41.871Z,6.68
2023-01-31T02:12:10.573Z,6.30
2023-01-31T02:14:41.955Z,5.97
2023-01-31T02:17:29.361Z,5.97
2023-01-31T02:20:05.958Z,6.25
2023-01-31T02:23:00.639Z,6.07
2023-01-31T02:25:42.790Z,6.10
2023-01-31T02:28:47.588Z,5.78
2023-01-31T02:31:52.148Z,5.82
2023-01-31T02:34:39.659Z,7.25
2023-01-31T02:37:34.174Z,5.97
2023-01-31T02:40:39.229Z,5.40
2023-01-31T02:43:16.704Z,5.95
2023-01-31T02:46:00.875Z,5.50
2023-01-31T02:48:31.184Z,6.03
2023-01-31T02:51:12.820Z,5.90
2023-01-31T02:53:51.777Z,6.20
2023-01-31T02:56:31.672Z,6.68
2023-01-31T02:59:05.157Z,5.78
2023-01-31T03:01:36.645Z,5.32
2023-01-31T03:04:06.517Z,6.00
2023-01-31T03:06:37.299Z,6.45
2023-01-31T03:09:22.831Z,5.97
2023-01-31T03:12:00.842Z,5.88
2023-01-31T03:14:31.212Z,6.38
2023-01-31T03:17:33.166Z,6.85
2023-01-31T03:20:06.640Z,5.60
2023-01-31T03:22:42.365Z,6.30
2023-01-31T03:25:13.768Z,5.47
2023-01-31T03:27:46.991Z,6.38
2023-01-31T03:30:21.266Z,6.33
2023-01-31T03:33:05.872Z,5.68
2023-01-31T03:35:36.158Z,5.78
2023-01-31T03:38:15.396Z,7.13
2023-01-31T03:40:51.872Z,6.65
2023-01-31T03:43:39.790Z,7.07
2023-01-31T03:46:13.433Z,6.20
2023-01-31T03:48:43.745Z,6.35
2023-01-31T03:51:18.267Z,6.45
2023-01-31T03:53:57.556Z,7.57
2023-01-31T03:56:34.914Z,7.05
2023-01-31T04:01:40.662Z,7.53
2023-01-31T04:04:15.023Z,6.65
2023-01-31T04:06:43.489Z,8.13
2023-01-31T04:09:10.777Z,7.30
2023-01-31T04:11:40.652Z,7.22
2023-01-31T04:14:09.649Z,7.47
2023-01-31T04:16:36.842Z,7.28
2023-01-31T04:19:04.112Z,7.57
2023-01-31T04:21:31.059Z,7.78
2023-01-31T04:23:58.084Z,7.78
2023-01-31T04:26:25.111Z,7.53
2023-01-31T04:28:52.147Z,7.07
2023-01-31T04:31:19.249Z,6.60
2023-01-31T04:33:46.334Z,7.78
2023-01-31T04:36:13.433Z,6.90
2023-01-31T04:38:40.445Z,7.45
2023-01-31T04:41:07.400Z,7.57
2023-01-31T04:43:34.641Z,7.57
2023-01-31T04:46:01.576Z,7.53
2023-01-31T04:48:29.833Z,8.05
2023-01-31T04:50:56.983Z,8.10
2023-01-31T04:53:23.914Z,8.68
2023-01-31T04:55:55.213Z,8.32
2023-01-31T04:58:23.168Z,8.03
2023-01-31T05:00:50.186Z,7.55
2023-01-31T05:03:17.162Z,7.80
2023-01-31T05:05:44.127Z,8.30
2023-01-31T05:08:11.143Z,7.07
2023-01-31T05:10:38.122Z,8.63
2023-01-31T05:13:05.130Z,8.77
2023-01-31T05:15:33.053Z,8.13
2023-01-31T05:18:03.461Z,8.63
2023-01-31T05:20:38.468Z,9.02
2023-01-31T05:23:06.168Z,9.13
2023-01-31T05:25:33.161Z,7.25
2023-01-31T05:28:00.161Z,9.65
2023-01-31T05:30:27.608Z,8.85
2023-01-31T05:32:54.819Z,10.05
2023-01-31T05:35:22.361Z,9.35
2023-01-31T05:37:49.539Z,8.88
2023-01-31T05:40:17.745Z,8.35
2023-01-31T05:42:44.903Z,8.23
2023-01-31T05:45:12.819Z,9.05
2023-01-31T05:47:39.765Z,9.02
2023-01-31T05:50:07.093Z,9.13
2023-01-31T05:52:34.071Z,8.93
2023-01-31T05:55:01.556Z,8.40
2023-01-31T05:57:30.087Z,8.80
2023-01-31T05:59:57.127Z,8.90
2023-01-31T06:02:24.137Z,9.07
2023-01-31T06:04:51.124Z,8.57
2023-01-31T06:07:18.180Z,8.55
2023-01-31T06:09:45.140Z,8.93
2023-01-31T06:12:15.316Z,8.35
2023-01-31T06:14:42.391Z,8.40
2023-01-31T06:17:09.773Z,9.10
2023-01-31T06:19:36.743Z,9.38
2023-01-31T06:22:03.729Z,8.27
2023-01-31T06:24:30.799Z,7.70
2023-01-31T06:26:58.229Z,8.70
2023-01-31T06:29:25.260Z,7.90
2023-01-31T06:31:53.820Z,8.50
2023-01-31T06:34:20.891Z,8.55
2023-01-31T06:36:47.904Z,8.13
2023-01-31T06:39:15.231Z,8.38
2023-01-31T06:41:42.267Z,8.80
2023-01-31T06:44:09.341Z,9.25
2023-01-31T06:46:36.696Z,8.20
2023-01-31T06:49:03.706Z,8.40
2023-01-31T06:51:31.707Z,9.05
2023-01-31T06:53:59.972Z,9.30
2023-01-31T06:56:26.937Z,9.05
2023-01-31T06:58:53.896Z,9.10
2023-01-31T07:01:22.762Z,9.57
2023-01-31T07:03:50.126Z,8.75
2023-01-31T07:06:19.970Z,9.32
2023-01-31T07:08:47.408Z,8.85
2023-01-31T07:11:14.416Z,9.50
2023-01-31T07:13:41.413Z,8.82
2023-01-31T07:16:08.779Z,9.35
2023-01-31T07:18:35.759Z,8.88
2023-01-31T07:21:02.829Z,8.93
2023-01-31T07:23:30.100Z,8.65
2023-01-31T07:25:57.063Z,10.00
2023-01-31T07:28:24.031Z,9.80
2023-01-31T07:30:52.062Z,8.43
2023-01-31T07:33:19.077Z,9.23
2023-01-31T07:35:46.042Z,9.38
2023-01-31T07:38:13.094Z,9.55
2023-01-31T07:40:40.368Z,8.75
2023-01-31T07:43:07.400Z,10.85
2023-01-31T07:45:34.831Z,10.25
2023-01-31T07:48:02.102Z,8.98
2023-01-31T07:50:29.602Z,9.40
2023-01-31T07:52:58.789Z,9.07
2023-01-31T07:55:27.176Z,10.40
2023-01-31T07:57:54.211Z,10.88
2023-01-31T08:00:40.049Z,9.02
2023-01-31T08:03:33.727Z,9.02
2023-01-31T08:06:12.706Z,9.05
2023-01-31T08:08:41.869Z,8.98
2023-01-31T08:11:09.552Z,9.20
2023-01-31T08:13:37.878Z,9.70
2023-01-31T08:16:07.257Z,9.90
2023-01-31T08:18:34.335Z,10.23
2023-01-31T08:21:01.471Z,10.27
2023-01-31T08:23:29.366Z,10.02
2023-01-31T08:26:12.571Z,10.35
2023-01-31T08:28:40.263Z,9.27
2023-01-31T08:31:09.550Z,9.10
2023-01-31T08:33:38.287Z,10.18
2023-01-31T08:36:10.451Z,9.27
2023-01-31T08:38:45.651Z,9.10
2023-01-31T08:41:13.185Z,9.35
2023-01-31T08:43:54.273Z,10.02
2023-01-31T08:46:30.835Z,9.65
2023-01-31T08:48:59.450Z,10.38
2023-01-31T08:51:26.526Z,9.55
2023-01-31T08:53:53.826Z,8.85
2023-01-31T08:56:21.692Z,9.77
2023-01-31T08:58:49.068Z,9.10
2023-01-31T09:01:18.493Z,9.00
2023-01-31T09:03:46.320Z,8.13
2023-01-31T09:06:17.195Z,8.05
2023-01-31T09:08:44.615Z,10.10
2023-01-31T09:11:17.384Z,9.30
2023-01-31T09:13:45.727Z,9.43
2023-01-31T09:16:14.262Z,8.98
2023-01-31T09:18:42.143Z,8.10
2023-01-31T09:21:18.390Z,9.40
2023-01-31T09:23:46.338Z,9.68
2023-01-31T09:26:15.090Z,9.68
2023-01-31T09:28:43.565Z,9.90
2023-01-31T09:31:13.138Z,9.30
2023-01-31T09:33:40.784Z,8.60
2023-01-31T09:36:15.809Z,9.25
2023-01-31T09:38:43.161Z,9.52
2023-01-31T09:41:20.279Z,9.18
2023-01-31T09:43:54.207Z,8.80
2023-01-31T09:46:25.910Z,9.77
2023-01-31T09:48:56.209Z,9.85
2023-01-31T09:51:24.064Z,9.38
2023-01-31T09:53:51.297Z,10.13
2023-01-31T09:56:30.714Z,9.25
2023-01-31T09:59:20.702Z,9.63
2023-01-31T10:01:59.486Z,9.75
2023-01-31T10:04:44.239Z,10.65
2023-01-31T10:07:36.783Z,8.95
2023-01-31T10:10:22.786Z,9.57
2023-01-31T10:12:55.097Z,9.88
2023-01-31T10:15:25.240Z,9.45
2023-01-31T10:18:10.981Z,10.60
2023-01-31T10:20:50.374Z,9.07
2023-01-31T10:23:33.653Z,9.02
2023-01-31T10:26:23.967Z,8.70
2023-01-31T10:29:03.208Z,9.25
2023-01-31T10:31:36.912Z,8.93
2023-01-31T10:34:11.008Z,9.60
2023-01-31T10:37:01.520Z,9.30
2023-01-31T10:39:36.730Z,9.23
2023-01-31T10:42:27.870Z,8.80
2023-01-31T10:44:59.241Z,9.60
2023-01-31T10:47:37.427Z,9.88
2023-01-31T10:50:30.805Z,9.00
2023-01-31T10:53:00.906Z,9.18
2023-01-31T10:55:49.411Z,9.48
2023-01-31T10:58:20.187Z,9.77
2023-01-31T11:00:47.505Z,8.63
2023-01-31T11:03:15.626Z,9.60
2023-01-31T11:05:58.005Z,8.82
2023-01-31T11:08:51.007Z,9.75
2023-01-31T11:11:20.230Z,7.75
2023-01-31T11:14:02.264Z,9.50
2023-01-31T11:16:33.075Z,8.25
2023-01-31T11:19:04.225Z,8.50
2023-01-31T11:21:34.234Z,8.32
2023-01-31T11:24:07.010Z,9.70
2023-01-31T11:26:38.481Z,9.82
2023-01-31T11:29:17.634Z,9.80
2023-01-31T11:31:47.702Z,10.32
2023-01-31T11:34:26.736Z,9.45
2023-01-31T11:36:53.803Z,8.73
2023-01-31T11:39:38.097Z,8.88
2023-01-31T11:42:16.107Z,7.88
2023-01-31T11:45:01.836Z,9.63
2023-01-31T11:47:39.447Z,9.38
2023-01-31T11:50:08.117Z,8.73
2023-01-31T11:52:35.700Z,10.30
2023-01-31T11:55:09.063Z,9.60
2023-01-31T11:57:37.970Z,9.48
2023-01-31T12:00:20.319Z,8.15
2023-01-31T12:03:13.792Z,11.15
2023-01-31T12:05:44.258Z,11.75
2023-01-31T12:08:36.393Z,10.20
2023-01-31T12:11:09.772Z,8.45
2023-01-31T12:14:16.279Z,9.68
2023-01-31T12:16:46.412Z,9.18
2023-01-31T12:20:25.190Z,10.57
2023-01-31T12:23:08.251Z,8.73
2023-01-31T12:25:50.115Z,8.50
2023-01-31T12:28:36.098Z,11.35
2023-01-31T12:31:13.529Z,9.20
2023-01-31T12:33:49.301Z,8.75
2023-01-31T12:36:32.448Z,8.02
2023-01-31T12:39:22.553Z,9.75
2023-01-31T12:42:04.381Z,9.57
2023-01-31T12:44:51.990Z,9.93
2023-01-31T12:47:46.159Z,9.68
2023-01-31T12:50:22.115Z,9.55
2023-01-31T12:53:13.098Z,9.57
2023-01-31T12:56:08.666Z,8.35
2023-01-31T12:59:13.964Z,8.50
2023-01-31T13:02:00.935Z,9.02
2023-01-31T13:04:52.425Z,9.40
2023-01-31T13:07:29.647Z,9.30
2023-01-31T13:10:00.686Z,9.63
2023-01-31T13:12:31.462Z,9.52
2023-01-31T13:15:05.592Z,8.55
2023-01-31T13:17:35.705Z,8.30
2023-01-31T13:20:23.845Z,10.27
2023-01-31T13:23:04.067Z,10.75
2023-01-31T13:25:56.145Z,9.38
2023-01-31T13:28:31.524Z,9.48
2023-01-31T13:31:05.837Z,8.38
2023-01-31T13:33:37.461Z,10.57
2023-01-31T13:36:38.394Z,10.13
2023-01-31T13:39:15.602Z,10.32
2023-01-31T13:41:42.591Z,10.63
2023-01-31T13:44:14.404Z,10.07
2023-01-31T13:46:52.476Z,10.05
2023-01-31T13:49:28.843Z,9.05
2023-01-31T13:51:58.856Z,9.45
2023-01-31T13:54:33.294Z,9.80
2023-01-31T13:57:02.383Z,9.63
2023-01-31T13:59:35.736Z,8.90
2023-01-31T14:02:05.895Z,9.20
2023-01-31T14:04:37.192Z,8.00
2023-01-31T14:07:08.039Z,10.15
2023-01-31T14:09:37.506Z,9.15
2023-01-31T14:12:07.352Z,9.23
2023-01-31T14:14:37.577Z,9.77
2023-01-31T14:17:35.064Z,8.43
2023-01-31T14:20:26.958Z,9.43
2023-01-31T14:23:43.463Z,10.02
2023-01-31T14:26:33.121Z,9.68
2023-01-31T14:29:07.802Z,9.35
2023-01-31T14:31:34.976Z,11.25
2023-01-31T14:34:03.608Z,8.75
2023-01-31T14:36:44.778Z,8.93
2023-01-31T14:39:16.771Z,10.98
2023-01-31T14:42:11.061Z,9.45
2023-01-31T14:44:59.527Z,9.00
2023-01-31T14:47:32.374Z,9.93
2023-01-31T14:50:20.747Z,9.25
2023-01-31T14:53:06.958Z,9.57
2023-01-31T14:55:39.968Z,9.55
2023-01-31T14:58:13.459Z,10.48
2023-01-31T15:00:49.112Z,9.20
2023-01-31T15:03:31.905Z,8.70
2023-01-31T15:06:12.972Z,8.70
2023-01-31T15:08:48.207Z,8.73
2023-01-31T15:11:15.259Z,10.13
2023-01-31T15:13:51.522Z,9.52
2023-01-31T15:16:24.861Z,9.48
2023-01-31T15:19:19.416Z,9.98
2023-01-31T15:21:54.439Z,9.23
2023-01-31T15:24:31.611Z,10.60
2023-01-31T15:27:01.011Z,9.73
2023-01-31T15:29:51.205Z,10.15
2023-01-31T15:32:24.530Z,9.43
2023-01-31T15:35:07.482Z,10.27
2023-01-31T15:37:37.047Z,10.50
2023-01-31T15:40:16.268Z,10.70
2023-01-31T15:42:43.203Z,9.48
2023-01-31T15:45:30.810Z,10.35
2023-01-31T15:50:33.339Z,10.10
2023-01-31T15:53:06.115Z,8.80
2023-01-31T15:55:36.282Z,10.90
2023-01-31T15:58:07.028Z,10.35
2023-01-31T16:00:38.235Z,10.30
2023-01-31T16:03:08.458Z,10.15
2023-01-31T16:05:38.608Z,11.57
2023-01-31T16:08:19.470Z,11.90
2023-01-31T16:10:48.906Z,9.57
2023-01-31T16:13:17.024Z,10.95
2023-01-31T16:15:44.389Z,11.63
2023-01-31T16:18:13.031Z,11.18
2023-01-31T16:20:49.939Z,11.38
2023-01-31T16:23:30.524Z,10.88
2023-01-31T16:26:03.475Z,11.52
2023-01-31T16:28:36.822Z,9.75
2023-01-31T16:31:13.275Z,11.13
2023-01-31T16:34:00.143Z,11.75
2023-01-31T16:36:27.046Z,12.48
2023-01-31T16:39:07.045Z,11.63
2023-01-31T16:42:01.223Z,11.52
2023-01-31T16:44:35.090Z,11.65
2023-01-31T16:47:06.589Z,11.20
2023-01-31T16:49:37.543Z,10.82
2023-01-31T16:52:18.245Z,10.95
2023-01-31T16:54:52.053Z,10.63
2023-01-31T16:57:39.269Z,10.10
2023-01-31T17:00:27.697Z,11.93
2023-01-31T17:03:00.198Z,11.93
2023-01-31T17:05:37.704Z,11.73
2023-01-31T17:08:05.274Z,10.65
2023-01-31T17:10:35.908Z,11.60
2023-01-31T17:13:25.510Z,11.18
2023-01-31T17:15:52.835Z,11.65
2023-01-31T17:18:19.872Z,11.43
2023-01-31T17:20:49.281Z,11.60
2023-01-31T17:23:17.514Z,12.07
2023-01-31T17:25:45.432Z,10.40
2023-01-31T17:28:12.455Z,13.88
2023-01-31T17:30:41.637Z,12.15
2023-01-31T17:33:12.609Z,11.80
2023-01-31T17:35:42.616Z,11.35
2023-01-31T17:38:09.654Z,11.85
2023-01-31T17:40:39.813Z,12.10
2023-01-31T17:43:06.855Z,11.82
2023-01-31T17:45:34.262Z,11.25
2023-01-31T17:48:01.305Z,11.25
2023-01-31T17:50:29.692Z,11.88
2023-01-31T17:52:57.199Z,11.43
2023-01-31T17:55:25.725Z,12.23
2023-01-31T17:57:52.912Z,12.52
2023-01-31T18:00:21.189Z,10.35
2023-01-31T18:02:48.173Z,10.45
2023-01-31T18:05:20.451Z,11.60
2023-01-31T18:07:51.388Z,10.63
2023-01-31T18:10:18.566Z,12.70
2023-01-31T18:12:45.517Z,11.27
2023-01-31T18:15:12.973Z,11.38
2023-01-31T18:17:40.059Z,9.95
2023-01-31T18:20:07.664Z,11.98
2023-01-31T18:22:36.137Z,13.27
2023-01-31T18:25:05.453Z,10.70
2023-01-31T18:27:32.481Z,12.35
2023-01-31T18:29:59.420Z,13.02
2023-01-31T18:32:26.395Z,12.13
2023-01-31T18:34:53.497Z,11.70
2023-01-31T18:37:20.725Z,12.25
2023-01-31T18:39:49.310Z,13.20
2023-01-31T18:42:17.193Z,11.32
2023-01-31T18:44:47.254Z,10.88
2023-01-31T18:47:15.427Z,10.95
2023-01-31T18:49:43.236Z,10.93
2023-01-31T18:52:10.522Z,12.20
2023-01-31T18:54:38.139Z,11.57
2023-01-31T18:57:05.668Z,11.82
2023-01-31T18:59:34.775Z,12.63
2023-01-31T19:02:01.964Z,11.85
2023-01-31T19:04:29.076Z,10.60
2023-01-31T19:06:56.109Z,12.40
2023-01-31T19:09:23.515Z,11.15
2023-01-31T19:11:50.538Z,12.15
2023-01-31T19:14:17.557Z,11.75
2023-01-31T19:16:45.055Z,11.25
2023-01-31T19:19:12.978Z,10.65
2023-01-31T19:21:40.078Z,11.45
2023-01-31T19:24:11.304Z,10.68
2023-01-31T19:26:38.636Z,9.90
2023-01-31T19:29:08.635Z,11.48
2023-01-31T19:31:36.781Z,11.77
2023-01-31T19:34:06.689Z,11.48
2023-01-31T19:36:39.198Z,11.00
2023-01-31T19:39:10.377Z,12.35
2023-01-31T19:41:37.472Z,10.25
2023-01-31T19:44:05.075Z,10.63
2023-01-31T19:46:34.662Z,9.60
2023-01-31T19:49:02.145Z,10.43
2023-01-31T19:51:29.699Z,13.00
2023-01-31T19:54:01.703Z,10.88
2023-01-31T19:56:29.701Z,11.15
2023-01-31T19:58:57.257Z,10.95
2023-01-31T20:01:24.697Z,11.35
2023-01-31T20:03:53.856Z,10.70
2023-01-31T20:06:25.738Z,10.88
2023-01-31T20:08:55.433Z,10.85
2023-01-31T20:11:23.289Z,9.82
2023-01-31T20:13:51.979Z,11.27
2023-01-31T20:16:20.475Z,10.10
2023-01-31T20:18:48.126Z,11.35
2023-01-31T20:21:20.865Z,11.07
2023-01-31T20:23:49.245Z,10.25
2023-01-31T20:26:17.678Z,11.38
2023-01-31T20:28:44.790Z,10.10
2023-01-31T20:31:13.713Z,10.73
2023-01-31T20:33:40.945Z,11.85
